Terminal Aerodrome Forecast
Issued by NWS

Home | Current Version | Previous Version | Text Only | Print | Product List | Glossary On
Versions: 1 2 3 4 5 6 7 8 9 10 11 12 13 14 15
643
FTUS41 KBTV 062320
TAFMSS
TAF
KMSS 062320Z 0700/0724 06007KT P6SM BKN120
     FM071000 VRB03KT P6SM SCT120
     FM071300 18008KT P6SM SCT120
     FM071900 18010G16KT P6SM BKN060=

USA.gov is the U.S. government's official web portal to all federal, state and local government web resources and services.